createdAt,value
2023-01-17T00:00:37.393Z,9.457161
2023-01-17T00:01:37.290Z,9.457060
2023-01-17T00:02:37.308Z,9.457082
2023-01-17T00:03:37.268Z,9.457150
2023-01-17T00:04:37.281Z,9.457211
2023-01-17T00:05:37.264Z,9.457325
2023-01-17T00:06:37.238Z,9.457409
2023-01-17T00:07:37.220Z,9.457364
2023-01-17T00:08:37.218Z,9.457241
2023-01-17T00:09:37.230Z,9.457232
2023-01-17T00:10:37.198Z,9.457172
2023-01-17T00:11:37.187Z,9.457120
2023-01-17T00:12:37.179Z,9.457027
2023-01-17T00:13:37.173Z,9.457174
2023-01-17T00:14:37.182Z,9.457153
2023-01-17T00:15:37.145Z,9.457140
2023-01-17T00:16:37.139Z,9.457178
2023-01-17T00:17:37.131Z,9.457038
2023-01-17T00:18:37.124Z,9.457080
2023-01-17T00:19:37.120Z,9.457073
2023-01-17T00:20:37.102Z,9.457028
2023-01-17T00:21:37.092Z,9.457036
2023-01-17T00:22:37.087Z,9.457097
2023-01-17T00:23:37.068Z,9.457353
2023-01-17T00:24:37.075Z,9.457376
2023-01-17T00:25:37.046Z,9.457348
2023-01-17T00:26:37.042Z,9.457335
2023-01-17T00:27:37.033Z,9.457257
2023-01-17T00:28:37.022Z,9.456938
2023-01-17T00:29:37.050Z,9.456965
2023-01-17T00:30:36.991Z,9.457099
2023-01-17T00:31:37.012Z,9.457123
2023-01-17T00:32:36.989Z,9.457077
2023-01-17T00:33:36.978Z,9.456983
2023-01-17T00:34:36.967Z,9.457027
2023-01-17T00:35:36.952Z,9.457123
2023-01-17T00:36:36.949Z,9.457046
2023-01-17T00:37:36.933Z,9.456881
2023-01-17T00:38:36.932Z,9.456831
2023-01-17T00:39:36.941Z,9.456952
2023-01-17T00:40:36.918Z,9.457119
2023-01-17T00:41:36.905Z,9.457229
2023-01-17T00:42:36.878Z,9.457204
2023-01-17T00:43:36.882Z,9.457150
2023-01-17T00:44:36.893Z,9.457145
2023-01-17T00:45:36.855Z,9.457175
2023-01-17T00:46:36.884Z,9.457138
2023-01-17T00:47:36.834Z,9.457081
2023-01-17T00:48:36.834Z,9.457123
2023-01-17T00:49:36.851Z,9.457128
2023-01-17T00:50:36.811Z,9.457118
2023-01-17T00:51:36.798Z,9.457085
2023-01-17T00:52:36.796Z,9.457154
2023-01-17T00:53:36.800Z,9.457110
2023-01-17T00:54:36.787Z,9.457224
2023-01-17T00:55:36.772Z,9.457205
2023-01-17T00:56:36.758Z,9.457246
2023-01-17T00:57:36.756Z,9.457306
2023-01-17T00:58:36.742Z,9.457193
2023-01-17T00:59:36.754Z,9.457165
2023-01-17T01:00:36.803Z,9.457208
2023-01-17T01:01:36.927Z,9.457210
2023-01-17T01:02:36.732Z,9.457215
2023-01-17T01:03:36.743Z,9.457190
2023-01-17T01:04:36.699Z,9.457202
2023-01-17T01:05:36.687Z,9.457172
2023-01-17T01:06:36.649Z,9.457232
2023-01-17T01:07:36.690Z,9.457106
2023-01-17T01:08:36.645Z,9.457202
2023-01-17T01:09:37.652Z,9.457034
2023-01-17T01:10:36.632Z,9.457156
2023-01-17T01:11:36.620Z,9.457091
2023-01-17T01:12:36.604Z,9.457058
2023-01-17T01:13:36.592Z,9.457169
2023-01-17T01:14:36.601Z,9.457226
2023-01-17T01:15:36.577Z,9.457130
2023-01-17T01:16:36.623Z,9.457246
2023-01-17T01:17:36.567Z,9.457212
2023-01-17T01:18:36.542Z,9.457128
2023-01-17T01:19:36.560Z,9.457203
2023-01-17T01:20:36.548Z,9.457168
2023-01-17T01:21:36.519Z,9.457093
2023-01-17T01:22:36.503Z,9.457114
2023-01-17T01:23:36.500Z,9.457064
2023-01-17T01:24:36.498Z,9.457078
2023-01-17T01:25:36.537Z,9.457318
2023-01-17T01:26:36.475Z,9.457212
2023-01-17T01:27:36.456Z,9.457198
2023-01-17T01:28:36.451Z,9.457124
2023-01-17T01:29:36.466Z,9.457193
2023-01-17T01:30:36.413Z,9.457196
2023-01-17T01:31:36.456Z,9.457267
2023-01-17T01:32:36.404Z,9.457259
2023-01-17T01:33:36.406Z,9.457260
2023-01-17T01:34:36.425Z,9.457279
2023-01-17T01:35:36.371Z,9.457324
2023-01-17T01:36:36.369Z,9.457141
2023-01-17T01:37:36.352Z,9.457270
2023-01-17T01:38:36.344Z,9.457232
2023-01-17T01:39:36.350Z,9.457223
2023-01-17T01:40:36.327Z,9.457241
2023-01-17T01:41:36.321Z,9.457271
2023-01-17T01:42:36.307Z,9.457283
2023-01-17T01:43:36.307Z,9.457157
2023-01-17T01:44:36.324Z,9.457113
2023-01-17T01:45:36.314Z,9.457224
2023-01-17T01:46:36.259Z,9.457245
2023-01-17T01:47:36.253Z,9.457187
2023-01-17T01:48:36.247Z,9.457299
2023-01-17T01:49:36.268Z,9.457206
2023-01-17T01:50:36.226Z,9.457221
2023-01-17T01:51:36.232Z,9.457221
2023-01-17T01:52:36.203Z,9.457055
2023-01-17T01:53:36.204Z,9.457064
2023-01-17T01:54:36.197Z,9.457078
2023-01-17T01:55:36.228Z,9.457189
2023-01-17T01:56:36.170Z,9.457239
2023-01-17T01:57:36.184Z,9.457081
2023-01-17T01:58:36.160Z,9.457047
2023-01-17T01:59:36.160Z,9.457097
2023-01-17T02:00:36.197Z,9.457096
2023-01-17T02:01:36.163Z,9.457108
2023-01-17T02:02:36.114Z,9.457227
2023-01-17T02:03:36.115Z,9.457193
2023-01-17T02:04:37.114Z,9.457255
2023-01-17T02:05:36.073Z,9.457255
2023-01-17T02:06:36.051Z,9.457213
2023-01-17T02:07:36.058Z,9.457202
2023-01-17T02:08:36.043Z,9.457263
2023-01-17T02:09:36.057Z,9.457172
2023-01-17T02:10:36.010Z,9.457158
2023-01-17T02:11:36.022Z,9.457115
2023-01-17T02:12:36.003Z,9.457191
2023-01-17T02:13:35.996Z,9.457171
2023-01-17T02:14:36.010Z,9.457158
2023-01-17T02:15:35.974Z,9.457194
2023-01-17T02:16:35.977Z,9.457170
2023-01-17T02:17:35.959Z,9.457012
2023-01-17T02:18:35.939Z,9.457048
2023-01-17T02:19:35.962Z,9.456981
2023-01-17T02:20:35.930Z,9.457029
2023-01-17T02:21:35.921Z,9.457150
2023-01-17T02:22:35.899Z,9.457031
2023-01-17T02:23:35.891Z,9.456960
2023-01-17T02:24:35.905Z,9.457159
2023-01-17T02:25:35.875Z,9.457059
2023-01-17T02:26:35.865Z,9.457026
2023-01-17T02:27:35.851Z,9.457150
2023-01-17T02:28:35.851Z,9.457138
2023-01-17T02:29:35.847Z,9.457101
2023-01-17T02:30:35.842Z,9.456911
2023-01-17T02:31:35.846Z,9.456754
2023-01-17T02:32:35.819Z,9.456722
2023-01-17T02:33:35.796Z,9.456889
2023-01-17T02:34:35.807Z,9.457242
2023-01-17T02:35:35.797Z,9.457216
2023-01-17T02:36:35.793Z,9.457190
2023-01-17T02:37:35.751Z,9.457076
2023-01-17T02:38:35.755Z,9.457006
2023-01-17T02:39:35.762Z,9.457065
2023-01-17T02:40:35.743Z,9.457141
2023-01-17T02:41:35.712Z,9.457089
2023-01-17T02:42:35.717Z,9.457193
2023-01-17T02:43:35.703Z,9.457129
2023-01-17T02:44:35.719Z,9.457126
2023-01-17T02:45:35.704Z,9.457306
2023-01-17T02:46:35.682Z,9.457207
2023-01-17T02:47:35.677Z,9.457142
2023-01-17T02:48:35.665Z,9.457103
2023-01-17T02:49:35.658Z,9.457021
2023-01-17T02:50:35.645Z,9.457119
2023-01-17T02:51:35.636Z,9.457101
2023-01-17T02:52:35.630Z,9.457088
2023-01-17T02:53:35.600Z,9.457034
2023-01-17T02:54:35.634Z,9.457049
2023-01-17T02:55:35.624Z,9.457023
2023-01-17T02:56:35.595Z,9.456914
2023-01-17T02:57:35.597Z,9.456863
2023-01-17T02:58:35.585Z,9.457114
2023-01-17T02:59:35.594Z,9.457155
2023-01-17T03:00:35.566Z,9.457167
2023-01-17T03:01:35.671Z,9.457045
2023-01-17T03:02:35.635Z,9.457055
2023-01-17T03:03:35.528Z,9.457292
2023-01-17T03:04:35.548Z,9.457126
2023-01-17T03:05:35.509Z,9.457068
2023-01-17T03:06:35.511Z,9.457192
2023-01-17T03:07:35.491Z,9.456987
2023-01-17T03:08:35.482Z,9.457170
2023-01-17T03:09:35.472Z,9.457110
2023-01-17T03:10:35.501Z,9.457161
2023-01-17T03:11:35.475Z,9.457205
2023-01-17T03:12:35.449Z,9.457083
2023-01-17T03:13:35.445Z,9.456897
2023-01-17T03:14:35.431Z,9.457088
2023-01-17T03:15:35.445Z,9.457101
2023-01-17T03:16:35.494Z,9.457268
2023-01-17T03:17:35.395Z,9.457129
2023-01-17T03:29:21.557Z,9.458079
2023-01-17T03:30:21.706Z,9.457147
2023-01-17T03:31:21.541Z,9.456946
2023-01-17T03:32:21.537Z,9.456985
2023-01-17T03:33:21.627Z,9.457181
2023-01-17T03:34:21.514Z,9.457285
2023-01-17T03:35:21.521Z,9.457157
2023-01-17T03:36:21.504Z,9.457160
2023-01-17T03:51:33.917Z,9.457329
2023-01-17T03:52:33.903Z,9.457460
2023-01-17T03:53:33.903Z,9.457280
2023-01-17T03:54:33.918Z,9.457416
2023-01-17T03:55:33.908Z,9.457278
2023-01-17T03:56:33.879Z,9.457315
2023-01-17T03:57:33.885Z,9.457248
2023-01-17T03:58:33.854Z,9.457474
2023-01-17T03:59:33.875Z,9.457388
2023-01-17T04:00:33.861Z,9.457293
2023-01-17T04:01:33.970Z,9.457325
2023-01-17T04:02:33.890Z,9.457293
2023-01-17T04:03:34.763Z,9.457150
2023-01-17T04:04:33.805Z,9.457309
2023-01-17T04:37:12.310Z,9.457250
2023-01-17T04:38:12.287Z,9.457703
2023-01-17T04:39:12.309Z,9.457504
2023-01-17T04:40:12.306Z,9.457483
2023-01-17T04:41:12.274Z,9.457423
2023-01-17T04:42:12.253Z,9.457386
2023-01-17T04:43:12.256Z,9.457412
2023-01-17T04:44:12.250Z,9.457338
2023-01-17T04:45:12.254Z,9.457515
2023-01-17T04:46:12.259Z,9.457201
2023-01-17T04:47:12.220Z,9.457183
2023-01-17T04:48:12.237Z,9.457298
2023-01-17T04:49:12.201Z,9.457500
2023-01-17T04:50:12.212Z,9.457347
2023-01-17T04:51:12.207Z,9.457095
2023-01-17T04:52:12.179Z,9.456771
2023-01-17T04:53:12.168Z,9.456899
2023-01-17T04:54:12.151Z,9.457364
2023-01-17T04:55:12.163Z,9.457303
2023-01-17T04:56:12.149Z,9.457379
2023-01-17T04:57:12.133Z,9.457270
2023-01-17T04:58:12.128Z,9.457408
2023-01-17T04:59:12.116Z,9.457008
2023-01-17T05:00:12.139Z,9.456786
2023-01-17T05:01:12.181Z,9.456938
2023-01-17T05:02:12.086Z,9.456954
2023-01-17T05:03:12.070Z,9.456944
2023-01-17T05:04:12.057Z,9.457186
2023-01-17T05:05:12.061Z,9.457150
2023-01-17T05:06:12.050Z,9.457140
2023-01-17T05:07:12.037Z,9.457193
2023-01-17T05:08:12.027Z,9.457178
2023-01-17T05:09:12.012Z,9.457168
2023-01-17T05:10:12.019Z,9.457088
2023-01-17T05:11:11.998Z,9.457135
2023-01-17T05:12:11.976Z,9.457118
2023-01-17T05:13:11.986Z,9.457140
2023-01-17T05:14:11.955Z,9.457215
2023-01-17T05:15:11.970Z,9.457197
2023-01-17T05:16:11.998Z,9.457153
2023-01-17T05:17:11.947Z,9.457192
2023-01-17T05:18:11.919Z,9.456983
2023-01-17T05:19:11.923Z,9.457047
2023-01-17T05:20:11.920Z,9.457315
2023-01-17T05:21:12.899Z,9.457435
2023-01-17T05:22:11.901Z,9.457381
2023-01-17T05:23:11.882Z,9.457457
2023-01-17T05:24:11.867Z,9.457478
2023-01-17T05:25:11.878Z,9.457397
2023-01-17T05:26:11.858Z,9.457447
2023-01-17T05:27:11.838Z,9.457445
2023-01-17T05:28:11.848Z,9.457482
2023-01-17T05:29:11.830Z,9.457547
2023-01-17T05:30:11.812Z,9.457373
2023-01-17T05:31:11.863Z,9.456999
2023-01-17T05:32:11.811Z,9.456860
2023-01-17T05:33:11.802Z,9.456764
2023-01-17T05:34:11.787Z,9.456888
2023-01-17T05:35:11.806Z,9.456995
2023-01-17T05:36:11.799Z,9.457099
2023-01-17T05:37:11.763Z,9.457331
2023-01-17T05:38:11.745Z,9.457181
2023-01-17T05:39:11.747Z,9.457082
2023-01-17T05:40:11.747Z,9.457167
2023-01-17T05:41:11.746Z,9.457234
2023-01-17T05:42:11.734Z,9.457179
2023-01-17T05:43:11.706Z,9.457139
2023-01-17T05:44:11.706Z,9.457263
2023-01-17T05:45:11.706Z,9.457178
2023-01-17T05:46:11.743Z,9.457080
2023-01-17T05:47:11.686Z,9.457097
2023-01-17T05:48:11.671Z,9.456993
2023-01-17T05:49:11.667Z,9.456992
2023-01-17T05:50:11.668Z,9.457042
2023-01-17T05:51:11.666Z,9.457029
2023-01-17T05:52:11.659Z,9.457067
2023-01-17T05:53:11.641Z,9.457170
2023-01-17T05:54:11.621Z,9.456947
2023-01-17T05:55:11.626Z,9.457508
2023-01-17T05:56:11.622Z,9.457370
2023-01-17T05:57:11.594Z,9.457289
2023-01-17T05:58:11.615Z,9.457128
2023-01-17T05:59:14.014Z,9.457192
2023-01-17T06:25:48.744Z,9.457390
2023-01-17T06:26:48.728Z,9.457350
2023-01-17T06:27:48.712Z,9.457350
2023-01-17T06:28:48.708Z,9.457338
2023-01-17T06:29:48.719Z,9.457365
2023-01-17T06:30:48.729Z,9.457518
2023-01-17T06:31:48.699Z,9.457647
2023-01-17T06:32:48.688Z,9.457505
2023-01-17T06:33:48.681Z,9.457477
2023-01-17T06:34:48.678Z,9.457289
2023-01-17T06:35:48.688Z,9.457279
2023-01-17T06:36:48.656Z,9.457273
2023-01-17T06:37:48.661Z,9.457332
2023-01-17T06:38:48.643Z,9.457253
2023-01-17T06:39:48.651Z,9.457442
2023-01-17T06:40:48.639Z,9.457274
2023-01-17T06:41:48.624Z,9.457119
2023-01-17T06:42:48.634Z,9.456990
2023-01-17T06:43:48.606Z,9.456368
2023-01-17T06:44:48.591Z,9.456938
2023-01-17T06:45:51.141Z,9.457116
2023-01-17T06:46:49.594Z,9.457295
2023-01-17T06:47:48.552Z,9.457365
2023-01-17T06:48:48.556Z,9.457428
2023-01-17T06:49:48.572Z,9.457430
2023-01-17T06:50:48.556Z,9.457353
2023-01-17T06:51:48.521Z,9.457277
2023-01-17T06:52:48.506Z,9.457304
2023-01-17T06:53:48.505Z,9.457306
2023-01-17T06:54:48.491Z,9.457380
2023-01-17T06:55:48.516Z,9.457307
2023-01-17T06:56:49.486Z,9.457353
2023-01-17T07:31:12.184Z,9.457596
2023-01-17T07:32:12.096Z,9.458247
2023-01-17T07:33:12.106Z,9.457410
2023-01-17T07:34:12.082Z,9.457201
2023-01-17T07:35:12.071Z,9.457054
2023-01-17T07:36:12.087Z,9.457034
2023-01-17T07:37:14.328Z,9.457116
2023-01-17T07:38:12.128Z,9.457172
2023-01-17T07:39:12.047Z,9.457251
2023-01-17T07:40:12.033Z,9.457225
2023-01-17T07:41:12.051Z,9.457248
2023-01-17T07:42:12.026Z,9.457295
2023-01-17T07:43:12.015Z,9.457229
2023-01-17T07:44:12.011Z,9.457180
2023-01-17T07:45:11.989Z,9.457279
2023-01-17T07:46:12.039Z,9.457256
2023-01-17T07:47:12.001Z,9.457313
2023-01-17T07:48:11.969Z,9.457273
2023-01-17T07:49:11.969Z,9.457312
2023-01-17T07:50:11.939Z,9.457170
2023-01-17T07:51:11.962Z,9.457151
2023-01-17T07:52:11.939Z,9.457195
2023-01-17T07:53:11.936Z,9.457285
2023-01-17T07:54:11.920Z,9.457332
2023-01-17T07:55:11.910Z,9.457285
2023-01-17T07:56:11.922Z,9.457242
2023-01-17T07:57:11.895Z,9.457245
2023-01-17T07:58:11.886Z,9.457264
2023-01-17T07:59:11.882Z,9.457152
2023-01-17T08:00:11.881Z,9.457094
2023-01-17T08:01:11.963Z,9.457006
2023-01-17T08:02:11.863Z,9.457162
2023-01-17T08:03:11.845Z,9.457267
2023-01-17T08:04:11.949Z,9.457283
2023-01-17T08:05:11.835Z,9.457297
2023-01-17T08:06:11.846Z,9.457211
2023-01-17T08:07:11.812Z,9.457152
2023-01-17T08:08:11.806Z,9.457170
2023-01-17T08:09:11.816Z,9.457229
2023-01-17T08:10:11.796Z,9.457454
2023-01-17T08:11:11.797Z,9.457390
2023-01-17T08:12:11.767Z,9.457203
2023-01-17T08:13:11.769Z,9.457155
2023-01-17T08:14:11.774Z,9.457097
2023-01-17T08:15:11.740Z,9.457224
2023-01-17T08:16:11.797Z,9.457243
2023-01-17T08:17:11.779Z,9.457182
2023-01-17T08:18:11.732Z,9.457091
2023-01-17T08:19:11.729Z,9.457316
2023-01-17T08:20:11.708Z,9.457253
2023-01-17T08:21:11.704Z,9.457162
2023-01-17T08:22:11.955Z,9.457068
2023-01-17T08:23:11.681Z,9.457058
2023-01-17T08:24:11.679Z,9.457054
2023-01-17T08:25:11.673Z,9.457007
2023-01-17T08:26:11.666Z,9.457162
2023-01-17T08:27:11.679Z,9.457037
2023-01-17T08:28:11.640Z,9.456940
2023-01-17T08:29:11.640Z,9.457344
2023-01-17T08:30:11.631Z,9.457532
2023-01-17T08:31:11.683Z,9.457196
2023-01-17T08:32:11.649Z,9.457194
2023-01-17T08:33:11.607Z,9.457223
2023-01-17T08:34:11.600Z,9.456987
2023-01-17T08:35:11.593Z,9.457025
2023-01-17T08:36:11.585Z,9.457067
2023-01-17T08:37:11.599Z,9.456995
2023-01-17T08:38:11.560Z,9.456973
2023-01-17T08:39:11.553Z,9.457418
2023-01-17T08:40:11.561Z,9.457316
2023-01-17T08:41:11.552Z,9.457303
2023-01-17T08:42:11.555Z,9.457164
2023-01-17T08:43:11.518Z,9.457173
2023-01-17T08:44:11.519Z,9.457161
2023-01-17T08:45:11.545Z,9.457201
2023-01-17T08:46:11.539Z,9.457194
2023-01-17T08:47:11.513Z,9.457134
2023-01-17T08:48:11.488Z,9.457200
2023-01-17T08:49:11.479Z,9.457244
2023-01-17T08:50:11.469Z,9.457278
2023-01-17T08:51:11.465Z,9.457336
2023-01-17T08:52:11.489Z,9.457453
2023-01-17T08:53:11.440Z,9.457306
2023-01-17T08:54:11.460Z,9.457289
2023-01-17T08:55:11.432Z,9.457281
2023-01-17T08:56:11.429Z,9.456972
2023-01-17T08:57:11.465Z,9.457026
2023-01-17T08:58:11.435Z,9.457129
2023-01-17T08:59:11.389Z,9.457202
2023-01-17T09:00:11.387Z,9.457282
2023-01-17T09:01:11.468Z,9.457375
2023-01-17T09:02:11.376Z,9.457405
2023-01-17T09:03:11.351Z,9.457402
2023-01-17T09:04:11.386Z,9.457345
2023-01-17T09:05:11.338Z,9.457376
2023-01-17T09:06:11.343Z,9.457294
2023-01-17T09:07:11.338Z,9.457258
2023-01-17T09:08:11.305Z,9.457272
2023-01-17T09:09:11.303Z,9.457259
2023-01-17T09:10:11.293Z,9.457205
2023-01-17T09:11:11.292Z,9.457252
2023-01-17T09:12:11.290Z,9.457270
2023-01-17T09:13:11.272Z,9.457250
2023-01-17T09:14:11.274Z,9.457256
2023-01-17T09:15:11.251Z,9.457427
2023-01-17T09:16:11.362Z,9.457378
2023-01-17T09:17:13.096Z,9.457309
2023-01-17T09:18:11.225Z,9.457303
2023-01-17T09:19:11.221Z,9.457277
2023-01-17T09:20:11.206Z,9.457260
2023-01-17T09:21:11.207Z,9.457288
2023-01-17T09:31:03.668Z,9.457438
2023-01-17T09:32:03.682Z,9.457770
2023-01-17T09:33:03.599Z,9.457607
2023-01-17T09:34:03.612Z,9.457722
2023-01-17T09:35:03.576Z,9.457778
2023-01-17T09:36:03.578Z,9.457405
2023-01-17T09:37:03.590Z,9.457432
2023-01-17T09:38:03.560Z,9.457397
2023-01-17T09:39:03.586Z,9.457361
2023-01-17T09:40:03.603Z,9.457462
2023-01-17T09:41:03.535Z,9.457467
2023-01-17T09:42:03.561Z,9.457421
2023-01-17T09:43:03.514Z,9.457360
2023-01-17T09:44:03.516Z,9.457346
2023-01-17T09:45:03.502Z,9.457240
2023-01-17T09:46:03.542Z,9.457265
2023-01-17T09:47:03.572Z,9.457163
2023-01-17T09:48:03.472Z,9.456779
2023-01-17T09:49:03.465Z,9.457218
2023-01-17T09:50:03.452Z,9.457311
2023-01-17T09:51:03.445Z,9.457274
2023-01-17T09:52:03.468Z,9.457396
2023-01-17T09:53:03.425Z,9.457393
2023-01-17T09:54:03.407Z,9.457387
2023-01-17T09:55:03.410Z,9.457644
2023-01-17T09:56:03.390Z,9.457443
2023-01-17T09:57:03.406Z,9.457322
2023-01-17T09:58:03.366Z,9.457286
2023-01-17T09:59:03.374Z,9.457082
2023-01-17T10:00:04.144Z,9.457419
2023-01-17T10:01:03.401Z,9.457429
2023-01-17T10:02:03.495Z,9.457367
2023-01-17T10:03:03.335Z,9.457410
2023-01-17T10:04:03.357Z,9.457293
2023-01-17T10:05:03.404Z,9.457278
2023-01-17T10:06:03.302Z,9.457315
2023-01-17T10:07:03.295Z,9.457463
2023-01-17T10:08:04.596Z,9.457365
2023-01-17T10:09:04.256Z,9.457446
2023-01-17T10:10:03.246Z,9.457329
2023-01-17T10:11:03.228Z,9.456829
2023-01-17T10:12:03.243Z,9.457198
2023-01-17T10:13:03.209Z,9.457409
2023-01-17T10:14:03.199Z,9.457596
2023-01-17T10:15:03.226Z,9.457302
2023-01-17T10:16:03.185Z,9.456939
2023-01-17T10:17:03.204Z,9.456964
2023-01-17T10:18:03.163Z,9.457072
2023-01-17T10:19:03.154Z,9.457187
2023-01-17T10:20:03.135Z,9.457163
2023-01-17T10:21:03.143Z,9.457267
2023-01-17T10:22:03.155Z,9.457197
2023-01-17T10:23:03.111Z,9.457277
2023-01-17T10:24:03.099Z,9.457312
2023-01-17T10:25:03.101Z,9.457258
2023-01-17T10:26:03.081Z,9.457254
2023-01-17T10:27:03.127Z,9.457212
2023-01-17T10:28:03.070Z,9.457241
2023-01-17T10:29:03.053Z,9.457383
2023-01-17T10:30:03.054Z,9.457357
2023-01-17T10:31:03.059Z,9.457209
2023-01-17T10:32:04.045Z,9.457284
2023-01-17T10:33:03.033Z,9.457282
2023-01-17T10:34:03.013Z,9.457283
2023-01-17T10:35:02.987Z,9.457166
2023-01-17T10:36:02.988Z,9.457095
2023-01-17T10:37:02.987Z,9.457306
2023-01-17T10:38:02.969Z,9.457438
2023-01-17T10:39:02.944Z,9.457254
2023-01-17T10:40:02.941Z,9.457117
2023-01-17T10:41:02.935Z,9.457187
2023-01-17T10:42:02.947Z,9.457176
2023-01-17T10:43:02.911Z,9.457137
2023-01-17T10:44:02.904Z,9.457011
2023-01-17T10:45:02.894Z,9.457075
2023-01-17T10:46:02.928Z,9.456940
2023-01-17T10:47:02.889Z,9.456944
2023-01-17T10:48:02.867Z,9.457008
2023-01-17T10:49:02.873Z,9.457111
2023-01-17T10:50:02.845Z,9.457162
2023-01-17T10:51:02.835Z,9.457138
2023-01-17T10:52:02.873Z,9.457195
2023-01-17T10:53:02.833Z,9.457167
2023-01-17T10:54:02.821Z,9.457202
2023-01-17T10:55:02.795Z,9.457293
2023-01-17T10:56:02.791Z,9.457365
2023-01-17T10:57:02.809Z,9.457477
2023-01-17T10:58:02.799Z,9.457829
2023-01-17T10:59:02.767Z,9.457949
2023-01-17T11:00:02.754Z,9.457356
2023-01-17T11:01:02.921Z,9.457183
2023-01-17T11:02:02.783Z,9.457222
2023-01-17T11:03:02.850Z,9.457260
2023-01-17T11:04:02.774Z,9.457344
2023-01-17T11:05:02.713Z,9.457248
2023-01-17T11:06:02.692Z,9.457142
2023-01-17T11:07:02.685Z,9.457116
2023-01-17T11:08:02.706Z,9.456950
2023-01-17T11:09:02.664Z,9.456754
2023-01-17T11:10:02.661Z,9.456882
2023-01-17T11:11:02.631Z,9.457096
2023-01-17T11:12:02.633Z,9.457094
2023-01-17T11:13:02.671Z,9.457026
2023-01-17T11:14:02.626Z,9.456953
2023-01-17T11:15:02.582Z,9.457059
2023-01-17T11:16:02.645Z,9.457041
2023-01-17T11:17:02.583Z,9.457326
2023-01-17T11:18:02.596Z,9.457240
2023-01-17T11:19:02.551Z,9.457401
2023-01-17T11:20:02.547Z,9.457466
2023-01-17T11:21:02.538Z,9.457430
2023-01-17T11:22:02.526Z,9.457199
2023-01-17T11:23:02.531Z,9.457319
2023-01-17T11:24:02.520Z,9.457345
2023-01-17T11:25:02.498Z,9.457292
2023-01-17T11:26:02.486Z,9.457542
2023-01-17T11:27:02.481Z,9.457436
2023-01-17T11:28:02.497Z,9.457435
2023-01-17T11:29:02.460Z,9.457422
2023-01-17T11:30:02.475Z,9.457369
2023-01-17T11:31:02.451Z,9.457316
2023-01-17T11:32:02.429Z,9.457335
2023-01-17T11:33:02.444Z,9.457274
2023-01-17T11:34:02.412Z,9.457393
2023-01-17T11:35:02.391Z,9.457314
2023-01-17T11:36:02.381Z,9.457489
2023-01-17T11:37:02.378Z,9.457399
2023-01-17T11:38:02.405Z,9.457591
2023-01-17T11:39:02.354Z,9.457337
2023-01-17T11:40:02.346Z,9.457256
2023-01-17T11:41:02.341Z,9.457251
2023-01-17T11:42:02.334Z,9.457290
2023-01-17T11:43:02.340Z,9.457219
2023-01-17T11:44:02.320Z,9.457382
2023-01-17T11:45:02.299Z,9.457237
2023-01-17T11:46:02.333Z,9.457316
2023-01-17T11:47:02.278Z,9.457313
2023-01-17T11:48:02.283Z,9.457402
2023-01-17T11:49:02.268Z,9.457313
2023-01-17T11:50:02.274Z,9.457290
2023-01-17T11:51:02.245Z,9.457301
2023-01-17T11:52:02.222Z,9.457417
2023-01-17T11:53:02.233Z,9.457525
2023-01-17T11:54:02.208Z,9.457547
2023-01-17T11:55:02.214Z,9.457471
2023-01-17T11:56:02.180Z,9.457495
2023-01-17T11:57:02.169Z,9.457404
2023-01-17T11:58:02.177Z,9.457383
2023-01-17T11:59:02.152Z,9.457421
2023-01-17T12:00:02.137Z,9.457402
2023-01-17T12:01:02.241Z,9.457227
2023-01-17T12:02:02.121Z,9.457297
2023-01-17T12:03:02.130Z,9.457492
2023-01-17T12:04:02.218Z,9.457333
2023-01-17T12:05:02.105Z,9.457438
2023-01-17T12:06:02.090Z,9.457367
2023-01-17T12:07:02.069Z,9.457435
2023-01-17T12:08:02.092Z,9.457406
2023-01-17T12:09:02.075Z,9.457354
2023-01-17T12:10:02.077Z,9.457406
2023-01-17T12:11:02.025Z,9.457367
2023-01-17T12:12:03.233Z,9.457246
2023-01-17T12:13:02.032Z,9.457318
2023-01-17T12:14:02.026Z,9.457347
2023-01-17T12:15:02.021Z,9.457296
2023-01-17T12:16:02.000Z,9.457237
2023-01-17T12:17:01.973Z,9.457269
2023-01-17T12:18:01.987Z,9.457232
2023-01-17T12:19:01.943Z,9.457287
2023-01-17T12:20:01.937Z,9.457382
2023-01-17T12:21:01.936Z,9.457381
2023-01-17T12:22:01.926Z,9.457387
2023-01-17T12:23:01.942Z,9.457376
2023-01-17T12:24:01.932Z,9.457221
2023-01-17T12:25:01.892Z,9.457432
2023-01-17T12:26:01.887Z,9.457585
2023-01-17T12:27:01.865Z,9.457669
2023-01-17T12:28:01.888Z,9.457607
2023-01-17T12:29:01.848Z,9.457606
2023-01-17T12:30:01.831Z,9.457574
2023-01-17T12:31:01.838Z,9.457685
2023-01-17T12:32:01.807Z,9.457506
2023-01-17T12:33:01.819Z,9.457569
2023-01-17T12:34:01.797Z,9.457472
2023-01-17T12:35:01.799Z,9.457407
2023-01-17T12:36:01.807Z,9.457237
2023-01-17T12:37:01.755Z,9.457314
2023-01-17T12:38:05.181Z,9.457492
2023-01-17T12:39:02.736Z,9.457278
2023-01-17T12:40:01.732Z,9.457312
2023-01-17T12:41:01.717Z,9.457376
2023-01-17T12:42:01.702Z,9.457505
2023-01-17T12:43:01.731Z,9.457474
2023-01-17T12:44:01.681Z,9.457233
2023-01-17T12:45:01.681Z,9.457397
2023-01-17T12:46:01.668Z,9.457272
2023-01-17T12:47:01.650Z,9.457404
2023-01-17T12:48:01.663Z,9.457620
2023-01-17T12:49:01.649Z,9.457486
2023-01-17T12:50:01.631Z,9.457391
2023-01-17T12:51:01.616Z,9.457347
2023-01-17T12:52:01.614Z,9.457408
2023-01-17T12:53:01.610Z,9.457423
2023-01-17T12:54:01.637Z,9.457322
2023-01-17T12:55:01.587Z,9.457436
2023-01-17T12:56:01.571Z,9.457359
2023-01-17T12:57:01.583Z,9.457298
2023-01-17T12:58:01.576Z,9.457469
2023-01-17T12:59:01.541Z,9.457414
2023-01-17T13:00:01.523Z,9.457345
2023-01-17T13:01:01.743Z,9.457315
2023-01-17T13:02:01.510Z,9.457341
2023-01-17T13:03:01.525Z,9.457353
2023-01-17T13:04:01.478Z,9.457319
2023-01-17T13:05:01.461Z,9.457168
2023-01-17T13:06:01.464Z,9.457192
2023-01-17T13:07:01.439Z,9.457194
2023-01-17T13:08:01.458Z,9.457168
2023-01-17T13:09:01.421Z,9.457191
2023-01-17T13:10:01.409Z,9.457370
2023-01-17T13:11:01.401Z,9.457464
2023-01-17T13:12:01.387Z,9.457226
2023-01-17T13:13:01.395Z,9.457362
2023-01-17T13:14:01.364Z,9.457106
2023-01-17T13:15:01.344Z,9.457264
2023-01-17T13:16:01.346Z,9.457262
2023-01-17T13:17:01.323Z,9.457203
2023-01-17T13:18:01.332Z,9.457227
2023-01-17T13:19:01.305Z,9.457262
2023-01-17T13:20:01.347Z,9.457293
2023-01-17T13:21:01.280Z,9.457258
2023-01-17T13:22:01.269Z,9.457170
2023-01-17T13:23:01.260Z,9.457258
2023-01-17T13:24:01.241Z,9.457318
2023-01-17T13:25:01.237Z,9.457191
2023-01-17T13:26:01.227Z,9.457234
2023-01-17T13:27:01.929Z,9.457124
2023-01-17T13:28:01.224Z,9.457215
2023-01-17T13:29:01.194Z,9.457366
2023-01-17T13:30:01.193Z,9.457322
2023-01-17T13:31:01.185Z,9.457290
2023-01-17T13:32:01.154Z,9.457344
2023-01-17T13:33:01.180Z,9.457328
2023-01-17T13:34:01.148Z,9.457338
2023-01-17T13:35:01.871Z,9.457326
2023-01-17T13:36:01.116Z,9.457231
2023-01-17T13:37:01.091Z,9.457302
2023-01-17T13:38:01.109Z,9.457340
2023-01-17T13:39:01.074Z,9.457257
2023-01-17T13:40:01.067Z,9.457268
2023-01-17T13:41:01.054Z,9.457327
2023-01-17T13:42:01.037Z,9.457329
2023-01-17T13:43:01.079Z,9.457465
2023-01-17T13:44:01.011Z,9.457410
2023-01-17T13:45:00.995Z,9.457296
2023-01-17T13:46:00.988Z,9.457398
2023-01-17T13:47:01.009Z,9.457639
2023-01-17T13:48:00.983Z,9.457358
2023-01-17T13:49:00.950Z,9.457385